Britton, South Dakota
Current Conditions -  °F | °C
As of 12:35 PM on Wednesday 26 Nov 2014 (Local Time) from KGWR Reporting Station
Overcast Overcast  
Wind Chill: -6°   Ceiling: 4500
Heat Index:   Visibility: 10mi
Dew Point: -4°   Wind: 12mph
Humidity: 57%   Direction: 360°N
Pressure: 30.38"   Gusts: NA
Location:  45.79°N, 97.75°W
Report Text: KGWR 261835Z AUTO 36010KT 10SM FEW034 OVC045 M13/M20 A3038 RMK A01 P000
Loading
Personal Weather Stations






























Interactive Weather Map New forecast layout! Learn more

10-Day Weather Forecast

Advertisements
Track Severe Weather on mobile